sensor_id;sensor_type;location;lat;lon;timestamp;pressure;altitude;pressure_sealevel;temperature;humidity
73297;BME280;61524;50.938;11.396;2023-01-24T00:00:42;101051.25;;;-0.53;100.00
73297;BME280;61524;50.938;11.396;2023-01-24T00:03:08;101063.59;;;-0.44;100.00
73297;BME280;61524;50.938;11.396;2023-01-24T00:05:41;101064.56;;;-0.45;100.00
73297;BME280;61524;50.938;11.396;2023-01-24T00:08:08;101065.66;;;-0.47;100.00
73297;BME280;61524;50.938;11.396;2023-01-24T00:10:34;101065.06;;;-0.51;100.00
73297;BME280;61524;50.938;11.396;2023-01-24T00:12:59;101066.22;;;-0.44;100.00
73297;BME280;61524;50.938;11.396;2023-01-24T00:15:25;101064.81;;;-0.48;100.00
73297;BME280;61524;50.938;11.396;2023-01-24T00:17:50;101060.13;;;-0.44;100.00
73297;BME280;61524;50.938;11.396;2023-01-24T00:20:16;101063.59;;;-0.44;100.00
73297;BME280;61524;50.938;11.396;2023-01-24T00:22:41;101062.75;;;-0.44;100.00
73297;BME280;61524;50.938;11.396;2023-01-24T00:25:07;101044.00;;;-0.40;100.00
73297;BME280;61524;50.938;11.396;2023-01-24T00:27:33;101056.91;;;-0.37;100.00
73297;BME280;61524;50.938;11.396;2023-01-24T00:30:03;101058.56;;;-0.36;100.00
73297;BME280;61524;50.938;11.396;2023-01-24T00:32:31;101065.38;;;-0.44;100.00
73297;BME280;61524;50.938;11.396;2023-01-24T00:34:57;101066.34;;;-0.45;100.00
73297;BME280;61524;50.938;11.396;2023-01-24T00:37:23;101072.81;;;-0.49;100.00
73297;BME280;61524;50.938;11.396;2023-01-24T00:39:48;101067.00;;;-0.53;100.00
73297;BME280;61524;50.938;11.396;2023-01-24T00:42:14;101070.31;;;-0.51;100.00
73297;BME280;61524;50.938;11.396;2023-01-24T00:44:39;101076.16;;;-0.47;100.00
73297;BME280;61524;50.938;11.396;2023-01-24T00:47:04;101076.66;;;-0.54;100.00
73297;BME280;61524;50.938;11.396;2023-01-24T00:49:30;101074.59;;;-0.50;100.00
73297;BME280;61524;50.938;11.396;2023-01-24T00:51:55;101078.66;;;-0.46;100.00
73297;BME280;61524;50.938;11.396;2023-01-24T00:54:21;101075.88;;;-0.44;100.00
73297;BME280;61524;50.938;11.396;2023-01-24T00:56:46;101073.25;;;-0.44;100.00
73297;BME280;61524;50.938;11.396;2023-01-24T00:59:12;101077.44;;;-0.42;100.00
73297;BME280;61524;50.938;11.396;2023-01-24T01:01:37;101090.63;;;-0.53;100.00
73297;BME280;61524;50.938;11.396;2023-01-24T01:04:03;101074.41;;;-0.58;100.00
73297;BME280;61524;50.938;11.396;2023-01-24T01:06:28;101097.91;;;-0.57;100.00
73297;BME280;61524;50.938;11.396;2023-01-24T01:08:54;101084.63;;;-0.55;100.00
73297;BME280;61524;50.938;11.396;2023-01-24T01:11:19;101081.03;;;-0.54;100.00
73297;BME280;61524;50.938;11.396;2023-01-24T01:13:45;101081.13;;;-0.44;100.00
73297;BME280;61524;50.938;11.396;2023-01-24T01:16:16;101085.22;;;-0.51;100.00
73297;BME280;61524;50.938;11.396;2023-01-24T01:18:47;101092.41;;;-0.54;100.00
73297;BME280;61524;50.938;11.396;2023-01-24T01:21:16;101093.56;;;-0.46;100.00
73297;BME280;61524;50.938;11.396;2023-01-24T01:23:42;101100.84;;;-0.50;100.00
73297;BME280;61524;50.938;11.396;2023-01-24T01:26:11;101096.56;;;-0.51;100.00
73297;BME280;61524;50.938;11.396;2023-01-24T01:28:38;101094.69;;;-0.60;100.00
73297;BME280;61524;50.938;11.396;2023-01-24T01:31:03;101089.06;;;-0.56;100.00
73297;BME280;61524;50.938;11.396;2023-01-24T01:33:29;101097.91;;;-0.57;100.00
73297;BME280;61524;50.938;11.396;2023-01-24T01:35:54;101088.56;;;-0.49;100.00
73297;BME280;61524;50.938;11.396;2023-01-24T01:38:20;101088.06;;;-0.43;100.00
73297;BME280;61524;50.938;11.396;2023-01-24T01:40:45;101097.75;;;-0.55;100.00
73297;BME280;61524;50.938;11.396;2023-01-24T01:43:17;101082.97;;;-0.56;100.00
73297;BME280;61524;50.938;11.396;2023-01-24T01:45:48;101085.22;;;-0.51;100.00
73297;BME280;61524;50.938;11.396;2023-01-24T01:50:53;101077.13;;;-0.48;100.00
73297;BME280;61524;50.938;11.396;2023-01-24T01:53:22;101080.69;;;-0.49;100.00
73297;BME280;61524;50.938;11.396;2023-01-24T01:55:54;101070.63;;;-0.44;100.00
73297;BME280;61524;50.938;11.396;2023-01-24T01:58:21;101072.91;;;-0.40;100.00
73297;BME280;61524;50.938;11.396;2023-01-24T02:00:47;101073.41;;;-0.46;100.00
73297;BME280;61524;50.938;11.396;2023-01-24T02:03:18;101072.47;;;-0.56;100.00
73297;BME280;61524;50.938;11.396;2023-01-24T02:06:07;101066.94;;;-0.42;100.00
73297;BME280;61524;50.938;11.396;2023-01-24T02:08:33;101069.03;;;-0.57;100.00
73297;BME280;61524;50.938;11.396;2023-01-24T02:11:00;101066.16;;;-0.54;100.00
73297;BME280;61524;50.938;11.396;2023-01-24T02:13:44;101071.78;;;-0.58;100.00
73297;BME280;61524;50.938;11.396;2023-01-24T02:16:13;101057.69;;;-0.57;100.00
73297;BME280;61524;50.938;11.396;2023-01-24T02:18:41;101058.16;;;-0.52;100.00
73297;BME280;61524;50.938;11.396;2023-01-24T02:21:13;101059.13;;;-0.53;100.00
73297;BME280;61524;50.938;11.396;2023-01-24T02:26:23;101060.28;;;-0.46;100.00
73297;BME280;61524;50.938;11.396;2023-01-24T02:28:53;101059.22;;;-0.55;100.00
73297;BME280;61524;50.938;11.396;2023-01-24T02:31:20;101055.25;;;-0.49;100.00
73297;BME280;61524;50.938;11.396;2023-01-24T02:33:45;101060.41;;;-0.47;100.00
73297;BME280;61524;50.938;11.396;2023-01-24T02:38:59;101053.59;;;-0.50;100.00
73297;BME280;61524;50.938;11.396;2023-01-24T02:41:29;101056.13;;;-0.60;100.00
73297;BME280;61524;50.938;11.396;2023-01-24T02:43:58;101052.44;;;-0.57;100.00
73297;BME280;61524;50.938;11.396;2023-01-24T02:46:29;101056.72;;;-0.56;100.00
73297;BME280;61524;50.938;11.396;2023-01-24T02:48:54;101067.81;;;-0.52;100.00
73297;BME280;61524;50.938;11.396;2023-01-24T02:51:20;101051.88;;;-0.40;100.00
73297;BME280;61524;50.938;11.396;2023-01-24T02:54:04;101070.28;;;-0.40;100.00
73297;BME280;61524;50.938;11.396;2023-01-24T02:56:29;101056.22;;;-0.50;100.00
73297;BME280;61524;50.938;11.396;2023-01-24T02:59:13;101068.97;;;-0.45;100.00
73297;BME280;61524;50.938;11.396;2023-01-24T03:01:39;101064.00;;;-0.48;100.00
73297;BME280;61524;50.938;11.396;2023-01-24T03:04:04;101067.56;;;-0.49;100.00
73297;BME280;61524;50.938;11.396;2023-01-24T03:06:30;101065.66;;;-0.47;100.00
73297;BME280;61524;50.938;11.396;2023-01-24T03:08:55;101059.31;;;-0.45;100.00
73297;BME280;61524;50.938;11.396;2023-01-24T03:11:20;101071.47;;;-0.44;100.00
73297;BME280;61524;50.938;11.396;2023-01-24T03:13:46;101062.81;;;-0.56;100.00
73297;BME280;61524;50.938;11.396;2023-01-24T03:16:30;101061.75;;;-0.53;100.00
73297;BME280;61524;50.938;11.396;2023-01-24T03:19:14;101064.94;;;-0.49;100.00
73297;BME280;61524;50.938;11.396;2023-01-24T03:21:58;101068.66;;;-0.52;100.00
73297;BME280;61524;50.938;11.396;2023-01-24T03:24:42;101072.34;;;-0.55;100.00
73297;BME280;61524;50.938;11.396;2023-01-24T03:27:26;101064.97;;;-0.61;100.00
73297;BME280;61524;50.938;11.396;2023-01-24T03:30:10;101071.88;;;-0.60;100.00
73297;BME280;61524;50.938;11.396;2023-01-24T03:32:59;101066.16;;;-0.54;100.00
73297;BME280;61524;50.938;11.396;2023-01-24T03:35:43;101071.88;;;-0.48;100.00
73297;BME280;61524;50.938;11.396;2023-01-24T03:38:19;101070.81;;;-0.57;100.00
73297;BME280;61524;50.938;11.396;2023-01-24T03:41:03;101067.72;;;-0.62;100.00
73297;BME280;61524;50.938;11.396;2023-01-24T03:43:29;101065.06;;;-0.51;100.00
73297;BME280;61524;50.938;11.396;2023-01-24T03:45:54;101070.81;;;-0.57;100.00
73297;BME280;61524;50.938;11.396;2023-01-24T03:48:26;101063.06;;;-0.59;100.00
73297;BME280;61524;50.938;11.396;2023-01-24T03:50:59;101064.47;;;-0.55;100.00
73297;BME280;61524;50.938;11.396;2023-01-24T03:53:43;101063.41;;;-0.52;100.00
73297;BME280;61524;50.938;11.396;2023-01-24T03:56:09;101073.53;;;-0.47;100.00
73297;BME280;61524;50.938;11.396;2023-01-24T03:58:34;101067.00;;;-0.53;100.00
73297;BME280;61524;50.938;11.396;2023-01-24T04:01:00;101065.38;;;-0.44;100.00
73297;BME280;61524;50.938;11.396;2023-01-24T04:03:26;101070.06;;;-0.48;100.00
73297;BME280;61524;50.938;11.396;2023-01-24T04:05:52;101054.44;;;-0.49;100.00
73297;BME280;61524;50.938;11.396;2023-01-24T04:08:18;101048.16;;;-0.58;100.00
73297;BME280;61524;50.938;11.396;2023-01-24T04:10:43;101057.22;;;-0.62;100.00
73297;BME280;61524;50.938;11.396;2023-01-24T04:13:09;101063.41;;;-0.52;100.00
73297;BME280;61524;50.938;11.396;2023-01-24T04:15:35;101058.84;;;-0.50;100.00
73297;BME280;61524;50.938;11.396;2023-01-24T04:18:03;101061.84;;;-0.55;100.00
73297;BME280;61524;50.938;11.396;2023-01-24T04:20:31;101075.38;;;-0.59;100.00
73297;BME280;61524;50.938;11.396;2023-01-24T04:23:02;101077.25;;;-0.61;100.00
73297;BME280;61524;50.938;11.396;2023-01-24T04:25:28;101059.13;;;-0.53;100.00
73297;BME280;61524;50.938;11.396;2023-01-24T04:27:53;101062.66;;;-0.54;100.00
73297;BME280;61524;50.938;11.396;2023-01-24T04:30:18;101066.25;;;-0.55;100.00
73297;BME280;61524;50.938;11.396;2023-01-24T04:32:44;101069.81;;;-0.45;100.00
73297;BME280;61524;50.938;11.396;2023-01-24T04:35:15;101064.00;;;-0.48;100.00
73297;BME280;61524;50.938;11.396;2023-01-24T04:37:41;101060.97;;;-0.44;100.00
73297;BME280;61524;50.938;11.396;2023-01-24T04:40:07;101061.94;;;-0.45;100.00
73297;BME280;61524;50.938;11.396;2023-01-24T04:42:33;101063.59;;;-0.44;100.00
73297;BME280;61524;50.938;11.396;2023-01-24T04:44:58;101062.91;;;-0.46;100.00
73297;BME280;61524;50.938;11.396;2023-01-24T04:47:24;101064.31;;;-0.42;100.00
73297;BME280;61524;50.938;11.396;2023-01-24T04:49:49;101063.88;;;-0.47;100.00
73297;BME280;61524;50.938;11.396;2023-01-24T04:52:15;101069.94;;;-0.46;100.00
73297;BME280;61524;50.938;11.396;2023-01-24T04:54:40;101068.16;;;-0.46;100.00
73297;BME280;61524;50.938;11.396;2023-01-24T04:57:06;101068.16;;;-0.46;100.00
73297;BME280;61524;50.938;11.396;2023-01-24T04:59:32;101056.31;;;-0.40;100.00
73297;BME280;61524;50.938;11.396;2023-01-24T05:01:58;101067.56;;;-0.49;100.00
73297;BME280;61524;50.938;11.396;2023-01-24T05:04:23;101069.94;;;-0.46;100.00
73297;BME280;61524;50.938;11.396;2023-01-24T05:06:49;101071.66;;;-0.57;100.00
73297;BME280;61524;50.938;11.396;2023-01-24T05:09:14;101073.06;;;-0.52;100.00
73297;BME280;61524;50.938;11.396;2023-01-24T05:11:40;101075.31;;;-0.48;100.00
73297;BME280;61524;50.938;11.396;2023-01-24T05:14:08;101077.81;;;-0.46;100.00
73297;BME280;61524;50.938;11.396;2023-01-24T05:16:33;101069.72;;;-0.55;100.00
73297;BME280;61524;50.938;11.396;2023-01-24T05:18:59;101074.59;;;-0.50;100.00
73297;BME280;61524;50.938;11.396;2023-01-24T05:21:24;101071.75;;;-0.47;100.00
73297;BME280;61524;50.938;11.396;2023-01-24T05:23:51;101068.88;;;-0.55;100.00
73297;BME280;61524;50.938;11.396;2023-01-24T05:26:18;101074.72;;;-0.51;100.00
73297;BME280;61524;50.938;11.396;2023-01-24T05:28:43;101075.78;;;-0.54;100.00
73297;BME280;61524;50.938;11.396;2023-01-24T05:31:09;101081.31;;;-0.57;100.00
73297;BME280;61524;50.938;11.396;2023-01-24T05:33:35;101074.88;;;-0.53;100.00
73297;BME280;61524;50.938;11.396;2023-01-24T05:36:11;101085.22;;;-0.51;100.00
73297;BME280;61524;50.938;11.396;2023-01-24T05:38:36;101076.53;;;-0.52;100.00
73297;BME280;61524;50.938;11.396;2023-01-24T05:41:06;101079.38;;;-0.55;100.00
73297;BME280;61524;50.938;11.396;2023-01-24T05:43:32;101090.16;;;-0.58;100.00
73297;BME280;61524;50.938;11.396;2023-01-24T05:46:11;101089.06;;;-0.56;100.00
73297;BME280;61524;50.938;11.396;2023-01-24T05:48:37;101094.31;;;-0.56;100.00
73297;BME280;61524;50.938;11.396;2023-01-24T05:51:06;101096.47;;;-0.61;100.00
73297;BME280;61524;50.938;11.396;2023-01-24T05:53:34;101092.78;;;-0.58;100.00
73297;BME280;61524;50.938;11.396;2023-01-24T05:56:03;101096.09;;;-0.56;100.00
73297;BME280;61524;50.938;11.396;2023-01-24T05:58:32;101094.06;;;-0.52;100.00
73297;BME280;61524;50.938;11.396;2023-01-24T06:00:59;101095.13;;;-0.55;100.00
73297;BME280;61524;50.938;11.396;2023-01-24T06:03:24;101093.72;;;-0.48;100.00
73297;BME280;61524;50.938;11.396;2023-01-24T06:05:52;101098.50;;;-0.53;100.00
73297;BME280;61524;50.938;11.396;2023-01-24T06:08:19;101106.84;;;-0.48;100.00
73297;BME280;61524;50.938;11.396;2023-01-24T06:10:46;101102.78;;;-0.52;100.00
73297;BME280;61524;50.938;11.396;2023-01-24T06:13:12;101099.81;;;-0.59;100.00
73297;BME280;61524;50.938;11.396;2023-01-24T06:15:38;101114.97;;;-0.62;100.00
73297;BME280;61524;50.938;11.396;2023-01-24T06:18:05;101113.50;;;-0.55;100.00
73297;BME280;61524;50.938;11.396;2023-01-24T06:20:31;101112.56;;;-0.54;100.00
73297;BME280;61524;50.938;11.396;2023-01-24T06:23:03;101112.09;;;-0.48;100.00
73297;BME280;61524;50.938;11.396;2023-01-24T06:25:29;101120.69;;;-0.57;100.00
73297;BME280;61524;50.938;11.396;2023-01-24T06:27:55;101121.38;;;-0.55;100.00
73297;BME280;61524;50.938;11.396;2023-01-24T06:30:21;101124.47;;;-0.50;100.00
73297;BME280;61524;50.938;11.396;2023-01-24T06:35:36;101125.22;;;-0.70;100.00
73297;BME280;61524;50.938;11.396;2023-01-24T06:38:03;101124.41;;;-0.71;100.00
73297;BME280;61524;50.938;11.396;2023-01-24T06:40:29;101121.41;;;-0.66;100.00
73297;BME280;61524;50.938;11.396;2023-01-24T06:42:55;101126.94;;;-0.69;100.00
73297;BME280;61524;50.938;11.396;2023-01-24T06:45:22;101127.84;;;-0.70;100.00
73297;BME280;61524;50.938;11.396;2023-01-24T06:47:47;101132.06;;;-0.79;100.00
73297;BME280;61524;50.938;11.396;2023-01-24T06:50:17;101134.91;;;-0.71;100.00
73297;BME280;61524;50.938;11.396;2023-01-24T06:52:47;101131.69;;;-0.74;100.00
73297;BME280;61524;50.938;11.396;2023-01-24T06:55:14;101133.72;;;-0.67;100.00
73297;BME280;61524;50.938;11.396;2023-01-24T06:57:39;101133.84;;;-0.68;100.00
73297;BME280;61524;50.938;11.396;2023-01-24T07:00:05;101138.38;;;-0.59;100.00
73297;BME280;61524;50.938;11.396;2023-01-24T07:02:31;101137.66;;;-0.72;100.00
73297;BME280;61524;50.938;11.396;2023-01-24T07:04:57;101147.69;;;-0.77;100.00
73297;BME280;61524;50.938;11.396;2023-01-24T07:07:22;101144.34;;;-0.80;100.00
73297;BME280;61524;50.938;11.396;2023-01-24T07:09:47;101137.06;;;-0.76;100.00
73297;BME280;61524;50.938;11.396;2023-01-24T07:12:13;101138.75;;;-0.75;100.00
73297;BME280;61524;50.938;11.396;2023-01-24T07:14:38;101145.03;;;-0.66;100.00
73297;BME280;61524;50.938;11.396;2023-01-24T07:17:04;101141.97;;;-0.83;100.00
73297;BME280;61524;50.938;11.396;2023-01-24T07:19:30;101132.19;;;-0.81;100.00
73297;BME280;61524;50.938;11.396;2023-01-24T07:21:55;101143.72;;;-0.72;100.00
73297;BME280;61524;50.938;11.396;2023-01-24T07:24:25;101149.72;;;-0.70;100.00
73297;BME280;61524;50.938;11.396;2023-01-24T07:26:51;101142.88;;;-0.61;100.00
73297;BME280;61524;50.938;11.396;2023-01-24T07:29:18;101150.75;;;-0.61;100.00
73297;BME280;61524;50.938;11.396;2023-01-24T07:31:44;101138.13;;;-0.67;100.00
73297;BME280;61524;50.938;11.396;2023-01-24T07:34:09;101152.78;;;-0.76;100.00
73297;BME280;61524;50.938;11.396;2023-01-24T07:36:35;101149.72;;;-0.70;100.00
73297;BME280;61524;50.938;11.396;2023-01-24T07:39:00;101158.88;;;-0.75;100.00
73297;BME280;61524;50.938;11.396;2023-01-24T07:41:26;101161.13;;;-0.60;100.00
73297;BME280;61524;50.938;11.396;2023-01-24T07:43:51;101161.50;;;-0.53;100.00
73297;BME280;61524;50.938;11.396;2023-01-24T07:46:17;101165.66;;;-0.62;100.00
73297;BME280;61524;50.938;11.396;2023-01-24T07:48:43;101169.72;;;-0.58;100.00
73297;BME280;61524;50.938;11.396;2023-01-24T07:51:08;101166.16;;;-0.57;100.00
73297;BME280;61524;50.938;11.396;2023-01-24T07:53:35;101166.63;;;-0.51;100.00
73297;BME280;61524;50.938;11.396;2023-01-24T07:56:01;101159.38;;;-0.59;100.00
73297;BME280;61524;50.938;11.396;2023-01-24T07:58:26;101171.63;;;-0.60;100.00
73297;BME280;61524;50.938;11.396;2023-01-24T08:00:52;101169.97;;;-0.61;100.00
73297;BME280;61524;50.938;11.396;2023-01-24T08:03:17;101169.13;;;-0.61;100.00
73297;BME280;61524;50.938;11.396;2023-01-24T08:05:44;101181.28;;;-0.60;100.00
73297;BME280;61524;50.938;11.396;2023-01-24T08:08:09;101175.09;;;-0.48;100.00
73297;BME280;61524;50.938;11.396;2023-01-24T08:10:34;101180.69;;;-0.52;100.00
73297;BME280;61524;50.938;11.396;2023-01-24T08:13:00;101184.03;;;-0.50;100.00
73297;BME280;61524;50.938;11.396;2023-01-24T08:15:25;101187.47;;;-0.50;100.00
73297;BME280;61524;50.938;11.396;2023-01-24T08:17:51;101195.38;;;-0.50;100.00
73297;BME280;61524;50.938;11.396;2023-01-24T08:20:16;101185.63;;;-0.59;100.00
73297;BME280;61524;50.938;11.396;2023-01-24T08:22:42;101191.09;;;-0.62;100.00
73297;BME280;61524;50.938;11.396;2023-01-24T08:25:08;101207.31;;;-0.57;100.00
73297;BME280;61524;50.938;11.396;2023-01-24T08:27:34;101194.41;;;-0.60;100.00
73297;BME280;61524;50.938;11.396;2023-01-24T08:30:00;101186.31;;;-0.57;100.00
73297;BME280;61524;50.938;11.396;2023-01-24T08:32:25;101189.88;;;-0.47;100.00
73297;BME280;61524;50.938;11.396;2023-01-24T08:34:51;101194.41;;;-0.49;100.00
73297;BME280;61524;50.938;11.396;2023-01-24T08:37:16;101198.81;;;-0.49;100.00
73297;BME280;61524;50.938;11.396;2023-01-24T08:39:42;101195.13;;;-0.47;100.00
73297;BME280;61524;50.938;11.396;2023-01-24T08:42:08;101190.56;;;-0.45;100.00
73297;BME280;61524;50.938;11.396;2023-01-24T08:44:34;101201.69;;;-0.41;100.00
73297;BME280;61524;50.938;11.396;2023-01-24T08:46:59;101204.31;;;-0.41;100.00
73297;BME280;61524;50.938;11.396;2023-01-24T08:49:25;101199.75;;;-0.39;100.00
73297;BME280;61524;50.938;11.396;2023-01-24T08:51:50;101200.38;;;-0.47;100.00
73297;BME280;61524;50.938;11.396;2023-01-24T08:54:27;101206.81;;;-0.40;100.00
73297;BME280;61524;50.938;11.396;2023-01-24T08:56:52;101214.44;;;-0.37;100.00
73297;BME280;61524;50.938;11.396;2023-01-24T08:59:18;101216.13;;;-0.36;100.00
73297;BME280;61524;50.938;11.396;2023-01-24T09:01:43;101211.53;;;-0.22;100.00
73297;BME280;61524;50.938;11.396;2023-01-24T09:04:10;101203.81;;;-0.35;100.00
73297;BME280;61524;50.938;11.396;2023-01-24T09:06:36;101212.28;;;-0.32;100.00
73297;BME280;61524;50.938;11.396;2023-01-24T09:09:02;101216.25;;;-0.37;100.00
73297;BME280;61524;50.938;11.396;2023-01-24T09:11:29;101208.22;;;-0.24;100.00
73297;BME280;61524;50.938;11.396;2023-01-24T09:13:55;101218.47;;;-0.21;100.00
73297;BME280;61524;50.938;11.396;2023-01-24T09:16:20;101224.19;;;-0.28;100.00
73297;BME280;61524;50.938;11.396;2023-01-24T09:18:46;101230.88;;;-0.23;100.00
73297;BME280;61524;50.938;11.396;2023-01-24T09:21:11;101218.47;;;-0.10;100.00
73297;BME280;61524;50.938;11.396;2023-01-24T09:23:37;101231.13;;;-0.15;100.00
73297;BME280;61524;50.938;11.396;2023-01-24T09:26:03;101221.16;;;-0.01;100.00
73297;BME280;61524;50.938;11.396;2023-01-24T09:28:28;101227.72;;;-0.06;100.00
73297;BME280;61524;50.938;11.396;2023-01-24T09:30:54;101228.97;;;-0.10;100.00
73297;BME280;61524;50.938;11.396;2023-01-24T09:33:19;101214.25;;;-0.13;100.00
73297;BME280;61524;50.938;11.396;2023-01-24T09:35:56;101225.13;;;-0.17;100.00
73297;BME280;61524;50.938;11.396;2023-01-24T09:38:22;101220.34;;;-0.12;100.00
73297;BME280;61524;50.938;11.396;2023-01-24T09:41:27;101220.78;;;0.04;100.00
73297;BME280;61524;50.938;11.396;2023-01-24T09:44:04;101218.16;;;0.04;100.00
73297;BME280;61524;50.938;11.396;2023-01-24T09:46:43;101217.22;;;-0.06;100.00
73297;BME280;61524;50.938;11.396;2023-01-24T09:49:40;101219.81;;;0.05;100.00
73297;BME280;61524;50.938;11.396;2023-01-24T09:52:12;101203.31;;;0.14;100.00
73297;BME280;61524;50.938;11.396;2023-01-24T10:00:44;101204.34;;;-0.09;100.00
73297;BME280;61524;50.938;11.396;2023-01-24T10:03:37;101218.22;;;-0.18;100.00
73297;BME280;61524;50.938;11.396;2023-01-24T10:06:12;101203.38;;;-0.08;100.00
73297;BME280;61524;50.938;11.396;2023-01-24T10:08:53;101211.63;;;-0.13;100.00
73297;BME280;61524;50.938;11.396;2023-01-24T10:11:50;101202.97;;;-0.24;100.00
73297;BME280;61524;50.938;11.396;2023-01-24T10:28:03;101199.25;;;0.10;100.00
73297;BME280;61524;50.938;11.396;2023-01-24T10:30:41;101200.34;;;0.08;100.00
73297;BME280;61524;50.938;11.396;2023-01-24T10:33:18;101200.03;;;0.01;100.00
73297;BME280;61524;50.938;11.396;2023-01-24T10:36:00;101197.97;;;0.05;100.00
73297;BME280;61524;50.938;11.396;2023-01-24T10:38:27;101191.13;;;0.13;100.00
73297;BME280;61524;50.938;11.396;2023-01-24T10:43:52;101189.25;;;0.04;100.00
73297;BME280;61524;50.938;11.396;2023-01-24T10:46:35;101184.25;;;0.01;100.00
73297;BME280;61524;50.938;11.396;2023-01-24T10:49:11;101188.78;;;-0.01;100.00
73297;BME280;61524;50.938;11.396;2023-01-24T10:51:39;101186.63;;;0.04;100.00
73297;BME280;61524;50.938;11.396;2023-01-24T10:54:19;101180.41;;;0.05;100.00
73297;BME280;61524;50.938;11.396;2023-01-24T10:56:45;101179.06;;;-0.10;100.00
73297;BME280;61524;50.938;11.396;2023-01-24T10:59:12;101171.13;;;0.01;100.00
73297;BME280;61524;50.938;11.396;2023-01-24T11:01:45;101167.03;;;0.08;100.00
73297;BME280;61524;50.938;11.396;2023-01-24T11:04:27;101171.13;;;0.01;100.00
73297;BME280;61524;50.938;11.396;2023-01-24T11:06:53;101166.34;;;0.06;100.00
73297;BME280;61524;50.938;11.396;2023-01-24T11:09:21;101171.41;;;0.19;100.00
73297;BME280;61524;50.938;11.396;2023-01-24T11:11:53;101167.25;;;0.05;100.00
73297;BME280;61524;50.938;11.396;2023-01-24T11:14:27;101161.34;;;-0.08;100.00
73297;BME280;61524;50.938;11.396;2023-01-24T11:16:56;101168.13;;;-0.06;100.00
73297;BME280;61524;50.938;11.396;2023-01-24T11:21:57;101166.00;;;0.20;100.00
73297;BME280;61524;50.938;11.396;2023-01-24T11:24:24;101159.34;;;0.16;100.00
73297;BME280;61524;50.938;11.396;2023-01-24T11:26:55;101146.78;;;0.20;100.00
73297;BME280;61524;50.938;11.396;2023-01-24T11:29:21;101151.19;;;0.19;100.00
73297;BME280;61524;50.938;11.396;2023-01-24T11:31:53;101154.03;;;0.28;100.00
73297;BME280;61524;50.938;11.396;2023-01-24T11:37:14;101150.38;;;0.19;100.00
73297;BME280;61524;50.938;11.396;2023-01-24T11:42:40;101146.25;;;0.05;100.00
73297;BME280;61524;50.938;11.396;2023-01-24T11:48:09;101159.47;;;0.15;100.00
73297;BME280;61524;50.938;11.396;2023-01-24T11:59:10;101141.38;;;0.21;100.00
73297;BME280;61524;50.938;11.396;2023-01-24T12:07:01;101152.78;;;0.11;100.00
73297;BME280;61524;50.938;11.396;2023-01-24T12:09:47;101149.84;;;0.04;100.00
73297;BME280;61524;50.938;11.396;2023-01-24T12:17:27;101129.78;;;0.03;100.00
73297;BME280;61524;50.938;11.396;2023-01-24T12:22:41;101123.84;;;0.01;100.00
73297;BME280;61524;50.938;11.396;2023-01-24T12:25:25;101128.31;;;0.10;100.00
73297;BME280;61524;50.938;11.396;2023-01-24T12:27:56;101122.66;;;0.15;100.00
73297;BME280;61524;50.938;11.396;2023-01-24T12:30:36;101112.06;;;0.16;100.00
73297;BME280;61524;50.938;11.396;2023-01-24T12:33:13;101122.06;;;0.22;100.00
73297;BME280;61524;50.938;11.396;2023-01-24T12:35:44;101117.72;;;0.21;100.00
73297;BME280;61524;50.938;11.396;2023-01-24T12:41:35;101114.22;;;0.11;100.00
73297;BME280;61524;50.938;11.396;2023-01-24T12:46:45;101112.53;;;0.10;100.00
73297;BME280;61524;50.938;11.396;2023-01-24T12:49:33;101111.19;;;0.16;100.00
73297;BME280;61524;50.938;11.396;2023-01-24T12:55:16;101120.63;;;-0.03;100.00
73297;BME280;61524;50.938;11.396;2023-01-24T13:00:17;101123.78;;;0.12;100.00
73297;BME280;61524;50.938;11.396;2023-01-24T13:06:08;101126.31;;;0.03;100.00
73297;BME280;61524;50.938;11.396;2023-01-24T13:11:33;101118.38;;;0.14;100.00
73297;BME280;61524;50.938;11.396;2023-01-24T13:14:32;101127.81;;;0.16;100.00
73297;BME280;61524;50.938;11.396;2023-01-24T13:19:53;101117.69;;;0.12;100.00
73297;BME280;61524;50.938;11.396;2023-01-24T13:22:39;101130.53;;;-0.06;100.00
73297;BME280;61524;50.938;11.396;2023-01-24T13:28:49;101128.09;;;-0.19;100.00
73297;BME280;61524;50.938;11.396;2023-01-24T13:31:46;101137.16;;;-0.23;100.00
73297;BME280;61524;50.938;11.396;2023-01-24T13:34:16;101132.03;;;-0.24;100.00
73297;BME280;61524;50.938;11.396;2023-01-24T13:36:48;101129.88;;;-0.19;100.00
73297;BME280;61524;50.938;11.396;2023-01-24T13:39:36;101124.50;;;-0.18;100.00
73297;BME280;61524;50.938;11.396;2023-01-24T13:42:18;101135.13;;;-0.19;100.00
73297;BME280;61524;50.938;11.396;2023-01-24T13:44:44;101129.97;;;-0.10;100.00
73297;BME280;61524;50.938;11.396;2023-01-24T13:54:59;101119.31;;;-0.08;100.00
73297;BME280;61524;50.938;11.396;2023-01-24T13:57:29;101126.88;;;-0.15;100.00
73297;BME280;61524;50.938;11.396;2023-01-24T14:00:19;101120.91;;;-0.17;100.00
73297;BME280;61524;50.938;11.396;2023-01-24T14:07:55;101125.81;;;-0.23;100.00
73297;BME280;61524;50.938;11.396;2023-01-24T14:21:24;101122.25;;;-0.22;100.00
73297;BME280;61524;50.938;11.396;2023-01-24T14:26:53;101123.16;;;-0.12;100.00
73297;BME280;61524;50.938;11.396;2023-01-24T14:29:20;101129.84;;;-0.08;100.00
73297;BME280;61524;50.938;11.396;2023-01-24T14:31:51;101121.81;;;-0.07;100.00
73297;BME280;61524;50.938;11.396;2023-01-24T14:37:08;101124.63;;;-0.19;100.00
73297;BME280;61524;50.938;11.396;2023-01-24T14:39:34;101130.06;;;-0.11;100.00
73297;BME280;61524;50.938;11.396;2023-01-24T14:42:01;101126.44;;;-0.20;100.00